createdAt,value
2023-04-21T00:00:10.451Z,8.83
2023-04-21T00:02:39.566Z,8.60
2023-04-21T00:05:10.438Z,9.57
2023-04-21T00:07:39.342Z,10.00
2023-04-21T00:10:07.338Z,8.87
2023-04-21T00:12:34.853Z,9.30
2023-04-21T00:15:02.314Z,8.83
2023-04-21T00:17:29.773Z,9.53
2023-04-21T00:19:57.127Z,9.00
2023-04-21T00:22:26.055Z,8.27
2023-04-21T00:24:53.381Z,8.33
2023-04-21T00:27:21.139Z,8.90
2023-04-21T00:29:48.482Z,8.30
2023-04-21T00:32:16.392Z,7.87
2023-04-21T00:34:43.775Z,7.33
2023-04-21T00:37:12.888Z,7.53
2023-04-21T00:39:41.729Z,8.93
2023-04-21T00:42:09.094Z,7.90
2023-04-21T00:44:36.465Z,7.90
2023-04-21T00:47:05.334Z,8.47
2023-04-21T00:49:32.946Z,7.47
2023-04-21T00:52:00.764Z,7.03
2023-04-21T00:54:28.343Z,6.30
2023-04-21T00:56:58.382Z,7.73
2023-04-21T00:59:25.764Z,8.10
2023-04-21T01:01:53.745Z,7.70
2023-04-21T01:04:21.914Z,7.47
2023-04-21T01:06:49.414Z,7.70
2023-04-21T01:09:16.931Z,7.73
2023-04-21T01:12:01.342Z,7.97
2023-04-21T01:14:30.035Z,8.70
2023-04-21T01:16:57.965Z,8.40
2023-04-21T01:19:25.910Z,8.53
2023-04-21T01:21:57.607Z,9.30
2023-04-21T01:24:25.392Z,8.77
2023-04-21T01:26:52.759Z,8.63
2023-04-21T01:29:20.361Z,8.90
2023-04-21T01:31:48.371Z,9.17
2023-04-21T01:34:15.715Z,8.53
2023-04-21T01:36:45.442Z,9.67
2023-04-21T01:39:14.226Z,9.20
2023-04-21T01:41:41.597Z,7.80
2023-04-21T01:44:08.952Z,7.67
2023-04-21T01:46:36.576Z,8.63
2023-04-21T01:49:03.934Z,8.07
2023-04-21T01:51:33.750Z,7.97
2023-04-21T01:54:01.494Z,7.47
2023-04-21T01:56:30.433Z,7.30
2023-04-21T01:58:57.801Z,6.97
2023-04-21T02:01:25.203Z,7.30
2023-04-21T02:03:52.981Z,7.20
2023-04-21T02:06:20.489Z,7.33
2023-04-21T02:08:47.836Z,7.37
2023-04-21T02:11:15.516Z,7.80
2023-04-21T02:13:44.218Z,7.87
2023-04-21T02:16:14.405Z,6.83
2023-04-21T02:18:42.329Z,6.83
2023-04-21T02:21:09.678Z,7.00
2023-04-21T02:23:37.018Z,6.73
2023-04-21T02:26:04.673Z,7.50
2023-04-21T02:28:32.962Z,7.27
2023-04-21T02:31:01.699Z,6.47
2023-04-21T02:33:29.127Z,6.43
2023-04-21T02:35:56.490Z,6.97
2023-04-21T02:38:25.100Z,6.80
2023-04-21T02:40:52.766Z,6.30
2023-04-21T02:43:20.309Z,6.00
2023-04-21T02:45:49.332Z,5.97
2023-04-21T02:48:22.720Z,6.07
2023-04-21T02:50:53.174Z,6.43
2023-04-21T02:53:20.863Z,5.90
2023-04-21T02:55:48.591Z,5.90
2023-04-21T02:58:16.555Z,6.20
2023-04-21T03:00:43.936Z,6.13
2023-04-21T03:03:11.674Z,5.97
2023-04-21T03:05:40.457Z,6.20
2023-04-21T03:08:08.040Z,5.23
2023-04-21T03:10:37.550Z,5.90
2023-04-21T03:13:04.985Z,6.13
2023-04-21T03:15:33.175Z,5.10
2023-04-21T03:18:02.849Z,6.23
2023-04-21T03:20:30.225Z,5.70
2023-04-21T03:22:58.903Z,5.50
2023-04-21T03:25:27.663Z,5.33
2023-04-21T03:27:55.034Z,5.00
2023-04-21T03:30:22.524Z,5.93
2023-04-21T03:32:50.404Z,5.17
2023-04-21T03:35:18.068Z,4.87
2023-04-21T03:37:45.451Z,5.00
2023-04-21T03:40:14.225Z,5.30
2023-04-21T03:42:41.694Z,5.53
2023-04-21T03:45:10.201Z,5.50
2023-04-21T03:47:37.828Z,6.03
2023-04-21T03:50:06.061Z,7.00
2023-04-21T03:52:33.448Z,7.67
2023-04-21T03:55:00.951Z,6.50
2023-04-21T03:57:29.744Z,5.10
2023-04-21T03:59:57.150Z,5.27
2023-04-21T04:02:24.631Z,5.47
2023-04-21T04:04:52.221Z,5.80
2023-04-21T04:07:19.668Z,5.53
2023-04-21T04:09:47.001Z,5.67
2023-04-21T04:12:14.465Z,5.93
2023-04-21T04:14:43.165Z,5.30
2023-04-21T04:17:10.645Z,5.73
2023-04-21T04:19:38.030Z,6.00
2023-04-21T04:22:05.429Z,5.73
2023-04-21T04:24:33.602Z,6.60
2023-04-21T04:27:02.751Z,5.80
2023-04-21T04:29:30.397Z,6.17
2023-04-21T04:32:01.482Z,5.60
2023-04-21T04:34:28.826Z,5.63
2023-04-21T04:36:57.305Z,15.57
2023-04-21T04:39:25.653Z,19.43
2023-04-21T04:41:54.343Z,19.00
2023-04-21T04:44:23.589Z,18.97
2023-04-21T04:46:51.059Z,19.17
2023-04-21T04:49:20.876Z,20.43
2023-04-21T04:51:49.721Z,14.40
2023-04-21T04:54:17.331Z,15.70
2023-04-21T04:56:44.888Z,17.43
2023-04-21T04:59:12.328Z,17.63
2023-04-21T05:01:42.388Z,17.70
2023-04-21T05:04:09.895Z,17.73
2023-04-21T05:06:39.118Z,16.20
2023-04-21T05:09:06.476Z,13.87
2023-04-21T05:11:34.120Z,11.13
2023-04-21T05:14:01.455Z,13.40
2023-04-21T05:16:28.988Z,14.37
2023-04-21T05:18:56.376Z,14.10
2023-04-21T05:21:24.876Z,15.17
2023-04-21T05:23:53.543Z,11.43
2023-04-21T05:26:20.860Z,9.13
2023-04-21T05:28:48.239Z,8.20
2023-04-21T05:31:15.957Z,6.97
2023-04-21T05:33:43.349Z,6.70
2023-04-21T05:36:12.191Z,6.23
2023-04-21T05:38:39.530Z,6.40
2023-04-21T05:41:08.523Z,6.00
2023-04-21T05:43:36.553Z,6.17
2023-04-21T05:46:04.659Z,5.30
2023-04-21T05:48:32.009Z,5.90
2023-04-21T05:51:08.587Z,6.17
2023-04-21T05:53:35.933Z,6.23
2023-04-21T05:56:03.286Z,6.00
2023-04-21T05:58:31.968Z,5.37
2023-04-21T06:00:59.298Z,6.03
2023-04-21T06:03:27.218Z,5.33
2023-04-21T06:05:55.161Z,5.60
2023-04-21T06:08:22.662Z,5.80
2023-04-21T06:10:49.991Z,6.13
2023-04-21T06:13:17.344Z,6.20
2023-04-21T06:15:46.216Z,6.37
2023-04-21T06:18:13.605Z,6.07
2023-04-21T06:20:41.418Z,5.80
2023-04-21T06:23:09.501Z,5.07
2023-04-21T06:25:37.035Z,5.00
2023-04-21T06:28:04.416Z,4.67
2023-04-21T06:30:31.757Z,4.27
2023-04-21T06:33:00.795Z,4.10
2023-04-21T06:35:28.230Z,3.80
2023-04-21T06:37:55.678Z,3.80
2023-04-21T06:40:23.064Z,3.70
2023-04-21T06:42:50.815Z,3.50
2023-04-21T06:45:18.554Z,3.93
2023-04-21T06:47:46.738Z,3.50
2023-04-21T06:50:16.322Z,3.47
2023-04-21T06:52:43.706Z,3.17
2023-04-21T06:55:11.100Z,3.70
2023-04-21T06:57:38.500Z,3.17
2023-04-21T07:00:06.756Z,3.00
2023-04-21T07:02:34.151Z,3.03
2023-04-21T07:05:01.679Z,3.57
2023-04-21T07:07:30.415Z,3.47
2023-04-21T07:09:58.062Z,3.40
2023-04-21T07:12:25.479Z,3.53
2023-04-21T07:14:52.800Z,3.00
2023-04-21T07:17:20.292Z,3.67
2023-04-21T07:19:47.659Z,3.23
2023-04-21T07:22:15.026Z,3.20
2023-04-21T07:24:43.880Z,3.20
2023-04-21T07:27:11.214Z,2.80
2023-04-21T07:29:38.571Z,2.80
2023-04-21T07:32:07.973Z,3.03
2023-04-21T07:34:35.321Z,2.77
2023-04-21T07:37:02.647Z,2.90
2023-04-21T07:39:29.997Z,2.63
2023-04-21T07:41:58.672Z,2.87
2023-04-21T07:44:26.002Z,2.77
2023-04-21T07:46:53.357Z,2.80
2023-04-21T07:49:20.979Z,2.30
2023-04-21T07:51:48.566Z,2.43
2023-04-21T07:54:15.900Z,2.33
2023-04-21T07:56:43.245Z,2.20
2023-04-21T07:59:11.878Z,2.83
2023-04-21T08:01:39.247Z,2.50
2023-04-21T08:04:06.678Z,2.40
2023-04-21T08:06:34.580Z,2.30
2023-04-21T08:09:02.070Z,2.50
2023-04-21T08:11:30.472Z,2.00
2023-04-21T08:13:58.375Z,2.00
2023-04-21T08:16:27.060Z,2.20
2023-04-21T08:18:54.505Z,2.30
2023-04-21T08:21:21.840Z,2.10
2023-04-21T08:23:49.222Z,2.40
2023-04-21T08:26:16.603Z,2.10
2023-04-21T08:28:43.972Z,2.33
2023-04-21T08:31:11.336Z,2.20
2023-04-21T08:33:49.799Z,2.13
2023-04-21T08:36:28.996Z,1.90
2023-04-21T08:38:57.645Z,2.40
2023-04-21T08:41:25.764Z,1.70
2023-04-21T08:43:53.148Z,1.83
2023-04-21T08:46:20.871Z,1.70
2023-04-21T08:48:49.582Z,2.33
2023-04-21T08:51:20.406Z,1.97
2023-04-21T08:53:47.808Z,2.10
2023-04-21T08:56:15.898Z,2.00
2023-04-21T08:58:43.226Z,2.23
2023-04-21T09:01:11.057Z,2.07
2023-04-21T09:03:39.122Z,1.77
2023-04-21T09:06:09.612Z,2.17
2023-04-21T09:08:38.517Z,1.70
2023-04-21T09:11:06.417Z,1.80
2023-04-21T09:13:34.624Z,1.87
2023-04-21T09:16:02.696Z,1.33
2023-04-21T09:18:35.191Z,2.03
2023-04-21T09:21:06.598Z,1.93
2023-04-21T09:23:41.597Z,1.70
2023-04-21T09:26:09.007Z,2.23
2023-04-21T09:28:36.604Z,1.90
2023-04-21T09:31:04.106Z,2.47
2023-04-21T09:36:02.284Z,1.87
2023-04-21T09:38:29.611Z,1.63
2023-04-21T09:41:01.764Z,1.77
2023-04-21T09:43:29.531Z,1.60
2023-04-21T09:45:57.051Z,2.20
2023-04-21T09:48:25.874Z,2.00
2023-04-21T09:51:20.760Z,1.57
2023-04-21T09:53:42.607Z,1.97
2023-04-21T09:56:12.334Z,1.67
2023-04-21T09:58:41.898Z,2.03
2023-04-21T10:01:10.807Z,1.90
2023-04-21T10:03:39.580Z,1.50
2023-04-21T10:06:07.465Z,1.80
2023-04-21T10:08:35.651Z,1.60
2023-04-21T10:11:03.094Z,2.50
2023-04-21T10:13:31.835Z,2.10
2023-04-21T10:16:03.435Z,2.07
2023-04-21T10:18:30.820Z,1.97
2023-04-21T10:20:58.751Z,2.27
2023-04-21T10:23:27.433Z,1.77
2023-04-21T10:25:54.972Z,2.00
2023-04-21T10:28:39.507Z,2.63
2023-04-21T10:31:19.838Z,2.00
2023-04-21T10:34:13.138Z,2.70
2023-04-21T10:36:44.227Z,2.20
2023-04-21T10:39:13.049Z,1.77
2023-04-21T10:41:40.403Z,1.70
2023-04-21T10:44:12.883Z,2.00
2023-04-21T10:46:41.979Z,2.07
2023-04-21T10:49:09.943Z,2.03
2023-04-21T10:52:02.492Z,1.70
2023-04-21T10:54:31.219Z,1.67
2023-04-21T10:56:59.185Z,1.70
2023-04-21T10:59:27.446Z,1.70
2023-04-21T11:01:56.316Z,2.10
2023-04-21T11:04:24.669Z,1.80
2023-04-21T11:07:06.327Z,2.00
2023-04-21T11:09:33.706Z,2.07
2023-04-21T11:12:02.505Z,1.63
2023-04-21T11:14:29.886Z,2.00
2023-04-21T11:16:58.662Z,1.73
2023-04-21T11:19:26.101Z,1.77
2023-04-21T11:21:54.605Z,2.13
2023-04-21T11:24:22.115Z,2.00
2023-04-21T11:26:49.542Z,1.70
2023-04-21T11:29:17.834Z,1.80
2023-04-21T11:31:47.908Z,1.80
2023-04-21T11:34:17.141Z,1.70
2023-04-21T11:36:45.322Z,2.13
2023-04-21T11:39:13.431Z,2.00
2023-04-21T11:41:41.509Z,2.00
2023-04-21T11:44:09.131Z,2.20
2023-04-21T11:46:37.660Z,2.10
2023-04-21T11:49:05.770Z,2.20
2023-04-21T11:51:35.163Z,1.83
2023-04-21T11:54:02.585Z,2.00
2023-04-21T11:56:29.935Z,2.23
2023-04-21T11:58:57.308Z,2.20
2023-04-21T12:01:24.655Z,2.20
2023-04-21T12:03:52.994Z,2.07
2023-04-21T12:06:24.200Z,2.30
2023-04-21T12:08:57.609Z,2.20
2023-04-21T12:11:25.400Z,2.23
2023-04-21T12:13:52.764Z,2.03
2023-04-21T12:16:20.298Z,2.23
2023-04-21T12:18:49.091Z,2.00
2023-04-21T12:21:17.059Z,2.17
2023-04-21T12:23:45.485Z,2.30
2023-04-21T12:26:14.159Z,2.03
2023-04-21T12:28:41.530Z,2.03
2023-04-21T12:31:09.038Z,2.10
2023-04-21T12:33:36.527Z,2.37
2023-04-21T12:36:04.111Z,2.30
2023-04-21T12:38:31.515Z,2.30
2023-04-21T12:40:58.894Z,2.20
2023-04-21T12:43:27.575Z,2.03
2023-04-21T12:45:55.452Z,2.30
2023-04-21T12:48:23.140Z,2.13
2023-04-21T12:50:50.498Z,2.17
2023-04-21T12:53:18.175Z,2.07
2023-04-21T12:55:56.891Z,1.90
2023-04-21T12:58:32.886Z,2.10
2023-04-21T13:01:00.253Z,1.73
2023-04-21T13:03:28.166Z,2.40
2023-04-21T13:05:56.149Z,1.90
2023-04-21T13:08:23.511Z,1.90
2023-04-21T13:10:51.230Z,2.03
2023-04-21T13:13:19.402Z,2.00
2023-04-21T13:15:48.376Z,1.80
2023-04-21T13:18:15.826Z,2.10
2023-04-21T13:20:43.178Z,1.70
2023-04-21T13:23:11.760Z,1.80
2023-04-21T13:25:39.391Z,1.60
2023-04-21T13:28:07.474Z,1.30
2023-04-21T13:30:36.197Z,1.57
2023-04-21T13:33:06.821Z,1.67
2023-04-21T13:35:34.205Z,1.47
2023-04-21T13:38:01.562Z,1.50
2023-04-21T13:44:29.124Z,1.87
2023-04-21T13:46:57.318Z,1.60
2023-04-21T13:49:26.105Z,1.63
2023-04-21T13:51:53.479Z,2.90
2023-04-21T13:54:21.510Z,2.00
2023-04-21T13:56:49.246Z,1.70
2023-04-21T13:59:16.601Z,2.57
2023-04-21T14:01:44.010Z,1.67
2023-04-21T14:04:11.996Z,1.50
2023-04-21T14:06:41.042Z,1.43
2023-04-21T14:09:09.388Z,1.70
2023-04-21T14:11:36.758Z,1.70
2023-04-21T14:16:34.834Z,1.60
2023-04-21T14:19:02.275Z,1.50
2023-04-21T14:21:29.631Z,2.03
2023-04-21T14:23:58.709Z,1.77
2023-04-21T14:26:26.317Z,1.93
2023-04-21T14:28:53.734Z,1.70
2023-04-21T14:31:22.234Z,1.70
2023-04-21T14:33:49.881Z,1.80
2023-04-21T14:36:17.241Z,1.90
2023-04-21T14:38:44.593Z,1.77
2023-04-21T14:41:13.369Z,1.97
2023-04-21T14:43:40.748Z,2.00
2023-04-21T14:46:08.222Z,2.10
2023-04-21T14:48:35.643Z,1.77
2023-04-21T14:51:03.055Z,1.70
2023-04-21T14:53:30.463Z,2.10
2023-04-21T14:55:57.775Z,1.90
2023-04-21T14:58:26.539Z,2.07
2023-04-21T15:00:54.068Z,2.10
2023-04-21T15:03:21.589Z,1.77
2023-04-21T15:05:49.194Z,2.10
2023-04-21T15:08:18.241Z,1.80
2023-04-21T15:10:45.724Z,1.97
2023-04-21T15:13:13.309Z,1.80
2023-04-21T15:15:42.127Z,1.70
2023-04-21T15:18:09.522Z,1.90
2023-04-21T15:20:44.502Z,2.03
2023-04-21T15:23:12.940Z,2.10
2023-04-21T15:25:40.563Z,1.63
2023-04-21T15:28:08.492Z,1.63
2023-04-21T15:30:36.213Z,1.97
2023-04-21T15:33:05.176Z,1.50
2023-04-21T15:35:32.707Z,1.80
2023-04-21T15:38:00.310Z,1.60
2023-04-21T15:40:28.000Z,1.60
2023-04-21T15:42:55.607Z,1.77
2023-04-21T15:45:23.101Z,1.57
2023-04-21T15:47:50.501Z,1.67
2023-04-21T15:50:19.219Z,1.90
2023-04-21T15:52:46.629Z,2.10
2023-04-21T15:55:14.370Z,1.90
2023-04-21T15:57:41.807Z,1.90
2023-04-21T16:00:10.800Z,1.97
2023-04-21T16:02:38.486Z,1.73
2023-04-21T16:05:09.229Z,1.53
2023-04-21T16:07:38.046Z,2.13
2023-04-21T16:10:05.680Z,2.03
2023-04-21T16:12:33.035Z,1.70
2023-04-21T16:15:09.356Z,1.87
2023-04-21T16:17:43.800Z,2.20
2023-04-21T16:20:12.161Z,1.60
2023-04-21T16:22:40.946Z,1.60
2023-04-21T16:25:10.662Z,1.50
2023-04-21T16:27:38.421Z,1.83
2023-04-21T16:30:08.256Z,1.80
2023-04-21T16:32:36.228Z,1.90
2023-04-21T16:35:08.154Z,1.97
2023-04-21T16:37:38.038Z,2.00
2023-04-21T16:40:07.904Z,2.20
2023-04-21T16:42:36.929Z,2.30
2023-04-21T16:45:05.119Z,2.37
2023-04-21T16:47:33.847Z,2.40
2023-04-21T16:50:01.590Z,2.27
2023-04-21T16:52:28.981Z,3.47
2023-04-21T16:54:56.336Z,2.67
2023-04-21T16:57:25.132Z,3.80
2023-04-21T16:59:52.882Z,3.83
2023-04-21T17:02:20.381Z,2.23
2023-04-21T17:04:47.861Z,2.97
2023-04-21T17:07:15.883Z,2.70
2023-04-21T17:09:43.344Z,2.37
2023-04-21T17:12:11.719Z,2.63
2023-04-21T17:14:40.648Z,2.60
2023-04-21T17:17:08.088Z,2.70
2023-04-21T17:19:35.782Z,5.13
2023-04-21T17:22:03.117Z,3.80
2023-04-21T17:24:41.392Z,2.60
2023-04-21T17:27:17.745Z,2.37
2023-04-21T17:29:47.283Z,2.77
2023-04-21T17:32:14.867Z,3.00
2023-04-21T17:34:42.322Z,2.70
2023-04-21T17:37:09.756Z,2.50
2023-04-21T17:39:37.122Z,1.90
2023-04-21T17:42:04.976Z,1.90
2023-04-21T17:44:32.346Z,2.07
2023-04-21T17:47:02.052Z,2.30
2023-04-21T17:49:30.753Z,2.20
2023-04-21T17:51:58.154Z,2.40
2023-04-21T17:54:25.949Z,2.90
2023-04-21T17:56:53.507Z,3.00
2023-04-21T17:59:21.090Z,2.83
2023-04-21T18:01:48.456Z,2.93
2023-04-21T18:04:17.517Z,2.27
2023-04-21T18:06:45.153Z,2.30
2023-04-21T18:09:12.489Z,2.43
2023-04-21T18:11:40.077Z,2.13
2023-04-21T18:14:08.437Z,2.77
2023-04-21T18:16:36.031Z,2.80
2023-04-21T18:19:03.588Z,3.03
2023-04-21T18:21:32.666Z,3.43
2023-04-21T18:24:00.132Z,3.03
2023-04-21T18:26:27.540Z,3.23
2023-04-21T18:28:54.968Z,3.37
2023-04-21T18:31:25.865Z,3.80
2023-04-21T18:33:53.386Z,3.60
2023-04-21T18:36:21.078Z,4.10
2023-04-21T18:38:50.228Z,4.00
2023-04-21T18:41:18.631Z,5.10
2023-04-21T18:43:46.259Z,6.97
2023-04-21T18:46:13.663Z,6.43
2023-04-21T18:48:41.032Z,7.30
2023-04-21T18:51:08.374Z,7.50
2023-04-21T18:53:35.820Z,9.60
2023-04-21T18:56:04.553Z,8.03
2023-04-21T18:58:31.916Z,5.60
2023-04-21T19:00:59.408Z,4.67
2023-04-21T19:03:26.925Z,6.13
2023-04-21T19:05:54.373Z,9.37
2023-04-21T19:08:38.213Z,14.73
2023-04-21T19:11:10.924Z,13.67
2023-04-21T19:13:38.403Z,13.57
2023-04-21T19:16:06.011Z,8.27
2023-04-21T19:18:33.466Z,5.43
2023-04-21T19:21:00.807Z,4.93
2023-04-21T19:23:28.170Z,3.93
2023-04-21T19:25:57.399Z,4.40
2023-04-21T19:28:26.113Z,3.90
2023-04-21T19:30:53.449Z,3.53
2023-04-21T19:33:20.842Z,4.00
2023-04-21T19:35:48.446Z,3.80
2023-04-21T19:38:15.920Z,3.57
2023-04-21T19:40:44.869Z,3.83
2023-04-21T19:43:12.744Z,4.23
2023-04-21T19:45:41.808Z,3.97
2023-04-21T19:48:09.392Z,4.40
2023-04-21T19:50:37.325Z,3.67
2023-04-21T19:53:05.074Z,4.63
2023-04-21T19:55:35.591Z,5.10
2023-04-21T19:58:03.286Z,6.07
2023-04-21T20:00:31.850Z,6.50
2023-04-21T20:03:00.822Z,3.83
2023-04-21T20:05:28.485Z,4.70
2023-04-21T20:07:56.351Z,4.60
2023-04-21T20:10:24.166Z,5.10
2023-04-21T20:12:51.533Z,4.80
2023-04-21T20:15:21.071Z,4.37
2023-04-21T20:17:49.369Z,5.07
2023-04-21T20:20:18.099Z,4.80
2023-04-21T20:22:45.946Z,4.60
2023-04-21T20:25:13.765Z,3.70
2023-04-21T20:27:41.953Z,4.23
2023-04-21T20:30:09.705Z,3.60
2023-04-21T20:32:37.489Z,3.93
2023-04-21T20:35:05.495Z,3.60
2023-04-21T20:37:35.853Z,4.03
2023-04-21T20:40:07.941Z,4.00
2023-04-21T20:42:36.354Z,4.57
2023-04-21T20:45:03.748Z,5.20
2023-04-21T20:47:31.189Z,5.20
2023-04-21T20:49:58.990Z,4.40
2023-04-21T20:52:26.538Z,4.40
2023-04-21T20:54:55.174Z,4.70
2023-04-21T20:57:22.946Z,3.93
2023-04-21T20:59:51.284Z,3.90
2023-04-21T21:02:19.002Z,4.57
2023-04-21T21:04:47.676Z,4.47
2023-04-21T21:07:15.215Z,4.10
2023-04-21T21:09:42.933Z,4.20
2023-04-21T21:12:11.979Z,3.83
2023-04-21T21:14:39.331Z,4.13
2023-04-21T21:17:06.951Z,4.00
2023-04-21T21:19:34.404Z,4.30
2023-04-21T21:22:01.828Z,3.80
2023-04-21T21:24:29.677Z,4.20
2023-04-21T21:26:57.204Z,3.97
2023-04-21T21:29:26.120Z,4.43
2023-04-21T21:31:53.554Z,3.83
2023-04-21T21:34:21.236Z,3.73
2023-04-21T21:36:48.571Z,3.67
2023-04-21T21:39:16.356Z,3.27
2023-04-21T21:41:43.780Z,3.53
2023-04-21T21:44:11.324Z,4.20
2023-04-21T21:46:40.421Z,3.70
2023-04-21T21:49:08.359Z,4.13
2023-04-21T21:51:35.719Z,3.77
2023-04-21T21:54:03.111Z,3.80
2023-04-21T21:56:30.461Z,4.00
2023-04-21T21:58:57.813Z,3.93
2023-04-21T22:01:25.575Z,3.90
2023-04-21T22:03:54.594Z,4.50
2023-04-21T22:06:24.318Z,4.23
2023-04-21T22:08:52.154Z,4.37
2023-04-21T22:11:19.616Z,4.87
2023-04-21T22:13:47.272Z,4.57
2023-04-21T22:16:16.738Z,3.97
2023-04-21T22:18:44.879Z,3.60
2023-04-21T22:21:13.805Z,3.60
2023-04-21T22:23:41.348Z,3.53
2023-04-21T22:26:09.346Z,3.93
2023-04-21T22:28:37.066Z,3.33
2023-04-21T22:31:04.555Z,3.23
2023-04-21T22:33:31.887Z,3.40
2023-04-21T22:35:59.641Z,3.70
2023-04-21T22:38:28.812Z,3.47
2023-04-21T22:40:57.356Z,3.30
2023-04-21T22:43:24.695Z,3.07
2023-04-21T22:45:52.063Z,3.37
2023-04-21T22:48:19.394Z,3.63
2023-04-21T22:50:47.385Z,3.40
2023-04-21T22:53:14.959Z,3.73
2023-04-21T22:55:43.774Z,3.60
2023-04-21T22:58:12.612Z,3.87
2023-04-21T23:00:41.584Z,3.60
2023-04-21T23:03:09.103Z,3.60
2023-04-21T23:05:36.699Z,3.70
2023-04-21T23:08:04.240Z,3.80
2023-04-21T23:10:31.809Z,3.70
2023-04-21T23:13:02.822Z,4.13
2023-04-21T23:15:31.977Z,3.90
2023-04-21T23:17:59.622Z,3.77
2023-04-21T23:20:27.314Z,4.27
2023-04-21T23:22:54.671Z,3.87
2023-04-21T23:25:22.047Z,4.07
2023-04-21T23:27:49.578Z,3.73
2023-04-21T23:30:18.513Z,4.57
2023-04-21T23:32:46.516Z,4.43
2023-04-21T23:35:14.099Z,4.50
2023-04-21T23:37:41.794Z,4.57
2023-04-21T23:40:12.487Z,3.90
2023-04-21T23:42:40.242Z,4.43
2023-04-21T23:45:08.166Z,4.33
2023-04-21T23:47:37.280Z,4.47
2023-04-21T23:50:04.980Z,4.87
2023-04-21T23:52:32.613Z,5.27
2023-04-21T23:55:00.196Z,5.50
2023-04-21T23:57:27.566Z,5.53
2023-04-21T23:59:54.945Z,5.23
